Time;durP1;ratioP1;P1;durP2;ratioP2;P2;SDS_P1;SDS_P2;PMS_P1;PMS_P2;Temp;Humidity;BMP_temperature;BMP_pressure;BME280_temperature;BME280_humidity;BME280_pressure;Samples;Min_cycle;Max_cycle;Signal;HPM_P1;HPM_P2
2022/07/15 00:00:13;;;;;;;1.80;1.60;;;24.80;42.30;;;;;;5083601;28;20520;-84
2022/07/15 00:02:42;;;;;;;3.57;1.80;;;24.80;42.10;;;;;;5089568;28;20486;-84
2022/07/15 00:05:11;;;;;;;1.80;1.70;;;24.70;41.70;;;;;;5099071;28;20501;-86
2022/07/15 00:07:40;;;;;;;2.80;1.93;;;24.70;40.60;;;;;;5087822;28;20463;-86
2022/07/15 00:10:15;;;;;;;1.80;1.50;;;24.70;42.20;;;;;;5085013;28;20469;-85
2022/07/15 00:12:45;;;;;;;1.93;1.70;;;24.70;39.40;;;;;;5089665;28;20469;-85
2022/07/15 00:15:14;;;;;;;1.70;1.60;;;24.70;39.00;;;;;;5088043;28;20507;-83
2022/07/15 00:17:43;;;;;;;2.73;1.90;;;24.60;40.40;;;;;;5090678;28;20713;-84
2022/07/15 00:20:13;;;;;;;2.13;1.63;;;24.60;39.50;;;;;;5083324;28;20506;-84
2022/07/15 00:22:43;;;;;;;1.63;1.53;;;24.50;39.80;;;;;;5085458;28;20485;-85
2022/07/15 00:25:12;;;;;;;2.00;1.80;;;24.50;38.60;;;;;;5083911;28;21016;-83
2022/07/15 00:27:54;;;;;;;2.17;1.80;;;24.50;40.20;;;;;;5089044;28;20450;-83
2022/07/15 00:30:23;;;;;;;2.30;1.83;;;24.50;37.60;;;;;;5088086;28;20463;-85
2022/07/15 00:32:52;;;;;;;1.93;1.83;;;24.50;39.70;;;;;;5088338;28;20453;-83
2022/07/15 00:35:20;;;;;;;3.40;1.83;;;24.40;38.70;;;;;;5084001;28;20441;-83
2022/07/15 00:37:50;;;;;;;2.00;1.80;;;24.40;38.90;;;;;;5089893;28;20446;-84
2022/07/15 00:40:19;;;;;;;2.47;1.73;;;24.40;39.70;;;;;;5083840;28;20452;-83
2022/07/15 00:42:47;;;;;;;1.90;1.50;;;24.30;37.40;;;;;;5090450;28;20470;-85
2022/07/15 00:45:18;;;;;;;1.50;1.40;;;24.30;37.00;;;;;;5087480;28;20549;-84
2022/07/15 00:47:49;;;;;;;2.40;1.50;;;24.20;36.90;;;;;;5093248;28;20430;-84
2022/07/15 00:50:19;;;;;;;4.43;1.73;;;24.20;36.20;;;;;;5085933;28;20445;-84
2022/07/15 00:52:53;;;;;;;2.10;1.87;;;24.10;35.50;;;;;;5086137;28;20465;-84
2022/07/15 00:55:23;;;;;;;3.47;2.20;;;24.10;37.80;;;;;;5088625;28;20457;-83
2022/07/15 00:57:55;;;;;;;1.67;1.57;;;24.00;34.90;;;;;;5089119;28;20449;-84
2022/07/15 01:00:24;;;;;;;3.80;1.70;;;24.00;35.60;;;;;;5088918;28;20498;-84
2022/07/15 01:02:54;;;;;;;1.97;1.53;;;24.00;34.50;;;;;;5084613;28;21255;-83
2022/07/15 01:05:23;;;;;;;4.90;1.77;;;24.00;33.50;;;;;;5090412;28;20548;-84
2022/07/15 01:07:53;;;;;;;4.23;1.60;;;24.00;36.30;;;;;;5089772;28;21024;-84
2022/07/15 01:10:23;;;;;;;4.00;1.60;;;24.00;35.90;;;;;;5085714;28;20504;-85
2022/07/15 01:12:53;;;;;;;2.57;1.40;;;23.90;33.20;;;;;;5092357;28;20445;-83
2022/07/15 01:15:21;;;;;;;1.67;1.47;;;23.90;32.70;;;;;;5094727;28;20502;-84
2022/07/15 01:17:49;;;;;;;1.40;1.30;;;23.90;34.80;;;;;;5098915;28;20814;-84
2022/07/15 01:20:18;;;;;;;5.23;2.20;;;23.90;35.00;;;;;;5087380;28;20473;-84
2022/07/15 01:22:47;;;;;;;1.30;1.20;;;23.80;33.10;;;;;;5084050;28;22008;-84
2022/07/15 01:25:15;;;;;;;4.00;1.80;;;23.70;32.10;;;;;;5081559;28;20989;-84
2022/07/15 01:27:43;;;;;;;1.40;1.30;;;23.70;32.70;;;;;;5083941;28;20450;-84
2022/07/15 01:30:12;;;;;;;2.90;1.87;;;23.70;32.80;;;;;;5086718;28;20439;-84
2022/07/15 01:32:40;;;;;;;2.33;1.63;;;23.60;32.80;;;;;;5089019;28;20465;-83
2022/07/15 01:35:10;;;;;;;2.60;1.53;;;23.60;33.40;;;;;;5090769;28;20489;-84
2022/07/15 01:37:38;;;;;;;2.27;1.80;;;23.60;29.70;;;;;;5086897;28;20483;-84
2022/07/15 01:40:09;;;;;;;2.30;1.30;;;23.60;30.60;;;;;;5094823;28;20490;-84
2022/07/15 01:42:37;;;;;;;2.00;1.40;;;23.60;28.40;;;;;;5093891;28;20480;-83
2022/07/15 01:45:06;;;;;;;1.40;1.30;;;23.50;29.80;;;;;;5090618;28;20544;-83
2022/07/15 01:47:35;;;;;;;1.40;1.30;;;23.60;28.70;;;;;;5086441;28;20984;-84
2022/07/15 01:50:02;;;;;;;3.83;1.53;;;23.60;28.30;;;;;;5091314;28;20474;-83
2022/07/15 01:52:30;;;;;;;2.90;1.70;;;23.50;27.90;;;;;;5085161;28;20452;-84
2022/07/15 01:54:58;;;;;;;2.17;1.47;;;23.50;29.40;;;;;;5084419;28;20568;-83
2022/07/15 01:57:28;;;;;;;2.23;1.70;;;23.50;29.70;;;;;;5087862;28;20488;-85
2022/07/15 01:59:56;;;;;;;3.30;1.30;;;23.40;29.80;;;;;;5089031;28;20482;-83
2022/07/15 02:02:24;;;;;;;1.40;1.30;;;23.40;30.00;;;;;;5081497;28;20804;-84
2022/07/15 02:04:53;;;;;;;2.10;1.20;;;23.40;29.30;;;;;;5090703;28;20481;-83
2022/07/15 02:07:21;;;;;;;2.17;1.30;;;23.40;28.90;;;;;;5095223;28;20458;-85
2022/07/15 02:09:49;;;;;;;2.53;1.60;;;23.40;28.30;;;;;;5086749;28;20976;-84
2022/07/15 02:12:17;;;;;;;5.70;2.07;;;23.30;28.20;;;;;;5088376;28;20449;-83
2022/07/15 02:14:47;;;;;;;1.83;1.50;;;23.30;28.20;;;;;;5083768;28;20469;-85
2022/07/15 02:17:15;;;;;;;2.70;1.40;;;23.30;28.10;;;;;;5084162;28;20828;-83
2022/07/15 02:19:43;;;;;;;3.03;1.43;;;23.30;27.70;;;;;;5081350;28;20460;-84
2022/07/15 02:22:11;;;;;;;1.40;1.30;;;23.30;28.80;;;;;;5084058;28;20453;-84
2022/07/15 02:24:40;;;;;;;1.70;1.43;;;23.30;28.20;;;;;;5085879;28;20477;-83
2022/07/15 02:27:08;;;;;;;2.30;1.50;;;23.20;28.50;;;;;;5104439;28;20786;-83
2022/07/15 02:29:36;;;;;;;2.33;1.50;;;23.10;27.90;;;;;;5089968;28;20445;-83
2022/07/15 02:32:06;;;;;;;3.87;1.50;;;23.10;26.90;;;;;;5085739;28;20445;-82
2022/07/15 02:34:34;;;;;;;2.20;1.40;;;23.10;26.60;;;;;;5085827;28;21075;-85
2022/07/15 02:37:02;;;;;;;1.90;1.33;;;23.10;26.40;;;;;;5089567;28;20454;-83
2022/07/15 02:39:30;;;;;;;1.63;1.50;;;23.00;26.10;;;;;;5092368;28;20457;-85
2022/07/15 02:41:59;;;;;;;1.50;1.33;;;23.00;25.60;;;;;;5089098;28;21238;-83
2022/07/15 02:44:27;;;;;;;2.00;1.60;;;23.00;25.40;;;;;;5089694;28;20914;-84
2022/07/15 02:46:55;;;;;;;1.97;1.67;;;22.90;25.30;;;;;;5091482;28;20444;-84
2022/07/15 02:49:24;;;;;;;4.30;1.50;;;22.90;25.40;;;;;;5091637;28;20449;-84
2022/07/15 02:51:53;;;;;;;1.30;1.20;;;22.90;25.80;;;;;;5087876;28;20442;-84
2022/07/15 02:54:21;;;;;;;2.80;1.37;;;22.90;25.60;;;;;;5082603;28;20472;-86
2022/07/15 02:56:49;;;;;;;2.20;1.70;;;22.90;26.60;;;;;;5087392;28;20990;-85
2022/07/15 02:59:17;;;;;;;1.63;1.20;;;22.80;26.30;;;;;;5090577;28;20957;-84
2022/07/15 03:01:45;;;;;;;3.37;1.60;;;22.70;25.60;;;;;;5084207;28;20492;-84
2022/07/15 03:04:13;;;;;;;3.07;1.30;;;22.70;24.80;;;;;;5091994;28;20499;-84
2022/07/15 03:06:43;;;;;;;1.70;1.30;;;22.70;24.50;;;;;;5091216;28;20456;-83
2022/07/15 03:09:11;;;;;;;1.57;1.47;;;22.60;24.40;;;;;;5084774;28;20468;-84
2022/07/15 03:11:39;;;;;;;1.63;1.53;;;22.60;24.70;;;;;;5090754;28;20457;-83
2022/07/15 03:14:07;;;;;;;1.40;1.30;;;22.70;24.60;;;;;;5091651;28;20459;-84
2022/07/15 03:16:35;;;;;;;1.70;1.30;;;22.60;24.10;;;;;;5081883;28;20450;-85
2022/07/15 03:19:04;;;;;;;1.50;1.40;;;22.60;24.40;;;;;;5092307;28;20482;-84
2022/07/15 03:21:32;;;;;;;1.73;1.23;;;22.50;25.60;;;;;;5086369;28;20448;-84
2022/07/15 03:24:02;;;;;;;3.23;1.60;;;22.50;24.70;;;;;;5086858;28;20477;-85
2022/07/15 03:26:30;;;;;;;1.67;1.47;;;22.50;24.20;;;;;;5081240;28;20846;-84
2022/07/15 03:29:00;;;;;;;1.50;1.40;;;22.50;23.60;;;;;;5086648;28;20521;-84
2022/07/15 03:31:29;;;;;;;1.70;1.50;;;22.40;35.90;;;;;;5087574;28;20499;-84
2022/07/15 03:33:58;;;;;;;1.90;1.40;;;22.40;22.50;;;;;;5085990;28;20469;-83
2022/07/15 03:36:26;;;;;;;3.13;1.77;;;22.40;23.20;;;;;;5089742;28;20475;-84
2022/07/15 03:38:54;;;;;;;2.43;1.47;;;22.40;23.60;;;;;;5089916;28;20468;-84
2022/07/15 03:41:24;;;;;;;1.53;1.20;;;22.30;22.90;;;;;;5078343;28;20452;-84
2022/07/15 03:43:52;;;;;;;2.00;1.60;;;22.20;22.50;;;;;;5081690;28;20449;-84
2022/07/15 03:46:20;;;;;;;2.10;1.70;;;22.20;22.30;;;;;;5088758;28;20193;-84
2022/07/15 03:48:49;;;;;;;2.00;1.30;;;22.20;22.60;;;;;;5088222;28;21025;-84
2022/07/15 03:51:17;;;;;;;1.40;1.30;;;22.20;22.10;;;;;;5089258;28;20470;-85
2022/07/15 03:53:45;;;;;;;2.00;1.50;;;22.20;23.00;;;;;;5090115;28;20476;-84
2022/07/15 03:56:13;;;;;;;1.53;1.43;;;22.20;22.90;;;;;;5079532;28;20524;-84
2022/07/15 03:58:44;;;;;;;1.60;1.50;;;22.10;22.60;;;;;;5089718;28;20822;-84
2022/07/15 04:01:12;;;;;;;1.60;1.50;;;22.20;22.60;;;;;;5087130;28;20553;-83
2022/07/15 04:03:41;;;;;;;2.13;1.37;;;22.10;23.00;;;;;;5089416;28;20482;-84
2022/07/15 04:06:09;;;;;;;1.63;1.50;;;22.10;24.90;;;;;;5078752;28;20490;-83
2022/07/15 04:08:37;;;;;;;1.93;1.50;;;22.10;24.80;;;;;;5089178;28;20450;-85
2022/07/15 04:11:06;;;;;;;1.53;1.43;;;22.10;22.90;;;;;;5092559;28;20569;-84
2022/07/15 04:13:34;;;;;;;2.80;1.67;;;22.00;22.20;;;;;;5086546;28;20494;-83
2022/07/15 04:16:04;;;;;;;2.43;2.23;;;22.00;22.70;;;;;;5087895;28;20521;-83
2022/07/15 04:18:33;;;;;;;2.40;1.77;;;22.00;21.60;;;;;;5087304;28;20462;-83
2022/07/15 04:21:02;;;;;;;3.40;1.70;;;22.00;22.00;;;;;;5087431;28;20533;-85
2022/07/15 04:23:31;;;;;;;1.50;1.40;;;22.00;20.80;;;;;;5086944;28;20499;-81
2022/07/15 04:25:59;;;;;;;2.03;1.60;;;22.00;22.60;;;;;;5087551;28;20471;-83
2022/07/15 04:28:28;;;;;;;2.97;1.83;;;22.00;22.80;;;;;;5093132;28;20457;-83
2022/07/15 04:30:56;;;;;;;1.60;1.50;;;21.90;24.00;;;;;;5093250;28;20531;-84
2022/07/15 04:33:26;;;;;;;2.10;1.70;;;21.90;24.10;;;;;;5089020;28;20474;-81
2022/07/15 04:35:54;;;;;;;2.00;1.60;;;21.90;23.80;;;;;;5090493;28;20545;-81
2022/07/15 04:38:22;;;;;;;2.23;1.63;;;21.90;23.50;;;;;;5082207;28;20485;-81
2022/07/15 04:40:50;;;;;;;3.40;2.00;;;21.80;23.90;;;;;;5091596;28;20541;-80
2022/07/15 04:43:18;;;;;;;2.40;1.53;;;21.80;36.10;;;;;;5085300;28;20495;-81
2022/07/15 04:45:47;;;;;;;2.77;1.60;;;21.80;24.30;;;;;;5086731;28;20469;-81
2022/07/15 04:51:02;;;;;;;1.87;1.40;;;21.60;22.50;;;;;;5089946;28;20457;-82
2022/07/15 04:53:30;;;;;;;2.77;1.97;;;21.50;21.80;;;;;;5083243;28;20508;-80
2022/07/15 04:55:58;;;;;;;3.27;1.53;;;21.50;23.00;;;;;;5085934;28;20472;-81
2022/07/15 04:58:26;;;;;;;2.60;1.80;;;21.60;23.90;;;;;;5088104;28;20937;-80
2022/07/15 05:00:55;;;;;;;1.60;1.40;;;21.60;23.80;;;;;;5086467;28;20457;-81
2022/07/15 05:03:23;;;;;;;2.60;1.70;;;21.80;24.00;;;;;;5087825;28;21248;-82
2022/07/15 05:05:51;;;;;;;2.27;1.63;;;21.70;25.10;;;;;;5085783;28;20556;-83
2022/07/15 05:08:21;;;;;;;2.17;1.97;;;21.70;25.50;;;;;;5087090;28;20453;-84
2022/07/15 05:10:49;;;;;;;4.33;2.20;;;21.80;26.80;;;;;;5088094;28;20529;-83
2022/07/15 05:13:17;;;;;;;3.60;1.70;;;21.90;28.00;;;;;;5078019;28;20474;-83
2022/07/15 05:15:46;;;;;;;2.30;1.97;;;21.90;27.40;;;;;;5090201;28;20457;-82
2022/07/15 05:18:14;;;;;;;2.30;2.10;;;21.90;28.40;;;;;;5080707;28;20437;-83
2022/07/15 05:20:43;;;;;;;3.10;2.10;;;21.90;28.60;;;;;;5081339;28;20561;-82
2022/07/15 05:23:11;;;;;;;2.40;2.20;;;21.90;28.00;;;;;;5085169;28;20457;-87
2022/07/15 05:25:41;;;;;;;6.43;2.73;;;22.00;29.90;;;;;;5089129;28;20597;-82
2022/07/15 05:28:09;;;;;;;2.37;2.17;;;22.00;28.20;;;;;;5093902;28;20442;-82
2022/07/15 05:30:38;;;;;;;3.43;2.37;;;22.10;30.60;;;;;;5091261;28;20984;-82
2022/07/15 05:33:06;;;;;;;2.80;2.50;;;22.10;29.40;;;;;;5082847;28;20524;-82
2022/07/15 05:35:34;;;;;;;4.87;2.30;;;22.10;30.90;;;;;;5093353;28;20453;-82
2022/07/15 05:38:03;;;;;;;3.90;2.20;;;22.10;30.60;;;;;;5093906;28;20449;-83
2022/07/15 05:40:31;;;;;;;2.53;1.97;;;22.20;29.50;;;;;;5087082;28;20442;-84
2022/07/15 05:43:00;;;;;;;4.33;1.83;;;22.20;32.20;;;;;;5084249;28;20875;-83
2022/07/15 05:45:29;;;;;;;2.83;2.63;;;22.20;32.30;;;;;;5079269;28;21002;-83
2022/07/15 05:47:57;;;;;;;2.60;1.97;;;22.60;32.80;;;;;;5085363;28;20462;-82
2022/07/15 05:50:25;;;;;;;3.83;2.20;;;22.30;33.40;;;;;;5083873;28;20483;-83
2022/07/15 05:52:53;;;;;;;2.97;1.83;;;22.40;32.60;;;;;;5090483;28;20454;-83
2022/07/15 05:55:23;;;;;;;7.77;3.13;;;22.40;36.10;;;;;;5089237;28;20449;-82
2022/07/15 05:57:52;;;;;;;2.63;2.07;;;22.40;32.10;;;;;;5088918;28;20461;-82
2022/07/15 06:00:23;;;;;;;1.47;1.37;;;22.40;32.50;;;;;;5088232;28;20908;-82
2022/07/15 06:02:52;;;;;;;2.80;1.87;;;22.50;31.50;;;;;;5089081;28;21170;-82
2022/07/15 06:05:21;;;;;;;1.50;1.40;;;22.50;33.40;;;;;;5084419;28;20572;-82
2022/07/15 06:07:49;;;;;;;2.53;1.60;;;22.60;34.30;;;;;;5084384;28;20449;-81
2022/07/15 06:10:17;;;;;;;2.43;1.50;;;22.60;33.20;;;;;;5090615;28;20447;-82
2022/07/15 06:12:46;;;;;;;3.53;1.57;;;22.60;33.70;;;;;;5082794;28;20450;-82
2022/07/15 06:15:14;;;;;;;4.00;1.50;;;22.70;34.30;;;;;;5079193;28;20863;-82
2022/07/15 06:17:44;;;;;;;2.43;1.23;;;22.80;35.00;;;;;;5086181;28;20461;-82
2022/07/15 06:20:13;;;;;;;2.03;1.20;;;22.90;38.80;;;;;;5089533;28;20465;-82
2022/07/15 06:22:42;;;;;;;1.37;1.27;;;22.90;34.10;;;;;;5084412;28;20960;-83
2022/07/15 06:25:10;;;;;;;2.10;1.23;;;23.00;34.90;;;;;;5078442;28;20819;-82
2022/07/15 06:27:39;;;;;;;2.03;1.50;;;23.00;39.60;;;;;;5087624;28;20458;-82
2022/07/15 06:30:10;;;;;;;1.17;1.10;;;23.00;35.80;;;;;;5088278;28;20446;-82
2022/07/15 06:32:38;;;;;;;1.50;1.40;;;23.10;34.00;;;;;;5086498;28;20495;-82
2022/07/15 06:35:09;;;;;;;1.50;1.10;;;23.10;34.70;;;;;;5086318;28;20492;-82
2022/07/15 06:37:38;;;;;;;1.00;0.90;;;23.20;32.90;;;;;;5087153;28;21021;-82
2022/07/15 06:40:08;;;;;;;1.13;1.03;;;23.20;28.70;;;;;;5092192;28;20448;-82
2022/07/15 06:42:37;;;;;;;1.47;1.03;;;23.20;27.90;;;;;;5084575;28;20458;-86
2022/07/15 06:45:07;;;;;;;1.80;1.00;;;23.20;43.70;;;;;;5086946;28;21243;-82
2022/07/15 06:47:35;;;;;;;1.70;1.40;;;23.20;27.30;;;;;;5081811;28;20970;-83
2022/07/15 06:50:04;;;;;;;3.20;0.93;;;23.30;28.90;;;;;;5080325;28;20865;-82
2022/07/15 06:52:34;;;;;;;1.70;1.20;;;23.30;28.10;;;;;;5091012;28;20455;-83
2022/07/15 06:55:02;;;;;;;2.03;1.30;;;23.30;29.00;;;;;;5088756;28;20985;-81
2022/07/15 06:57:30;;;;;;;1.57;1.47;;;23.40;28.70;;;;;;5084292;28;22495;-82
2022/07/15 06:59:58;;;;;;;2.93;1.93;;;23.40;26.80;;;;;;5086732;28;20453;-84
2022/07/15 07:02:27;;;;;;;1.20;1.03;;;23.50;28.70;;;;;;5082529;28;20463;-85
2022/07/15 07:04:55;;;;;;;1.20;1.10;;;23.60;43.50;;;;;;5088912;28;20981;-84
2022/07/15 07:07:23;;;;;;;3.70;1.50;;;23.70;30.20;;;;;;5077411;28;20489;-82
2022/07/15 07:09:54;;;;;;;2.63;1.23;;;23.80;32.30;;;;;;5086931;28;20515;-82
2022/07/15 07:12:23;;;;;;;1.47;1.30;;;23.90;31.50;;;;;;5082369;28;20560;-80
2022/07/15 07:14:53;;;;;;;1.40;1.10;;;24.00;35.70;;;;;;5079849;28;20545;-82
2022/07/15 07:17:24;;;;;;;1.47;1.37;;;24.10;37.50;;;;;;5083888;28;20490;-82
2022/07/15 07:19:53;;;;;;;2.40;1.00;;;24.20;38.10;;;;;;5082712;28;20503;-82
2022/07/15 07:22:21;;;;;;;2.03;1.50;;;24.20;39.60;;;;;;5088763;28;20809;-82
2022/07/15 07:24:49;;;;;;;2.70;1.40;;;24.30;40.30;;;;;;5085800;28;21088;-81
2022/07/15 07:27:19;;;;;;;1.40;1.20;;;24.40;37.50;;;;;;5086425;28;20581;-82
2022/07/15 07:29:47;;;;;;;1.20;1.10;;;24.40;36.80;;;;;;5085987;28;20526;-82
2022/07/15 07:32:15;;;;;;;1.70;1.10;;;24.40;41.60;;;;;;5081202;28;20441;-81
2022/07/15 07:34:44;;;;;;;1.27;1.17;;;24.60;39.40;;;;;;5079403;28;20459;-81
2022/07/15 07:37:12;;;;;;;1.17;1.07;;;24.50;39.80;;;;;;5084730;28;20545;-84
2022/07/15 07:39:40;;;;;;;0.80;0.80;;;24.60;39.90;;;;;;5081842;28;20451;-82
2022/07/15 07:42:09;;;;;;;2.77;1.37;;;24.60;54.00;;;;;;5080265;28;20518;-81
2022/07/15 07:44:38;;;;;;;1.60;1.40;;;24.60;38.00;;;;;;5086466;28;20481;-82
2022/07/15 07:47:06;;;;;;;1.00;1.00;;;24.70;40.50;;;;;;5089529;28;20476;-82
2022/07/15 07:49:41;;;;;;;1.73;1.00;;;24.70;39.20;;;;;;5091513;28;20945;-82
2022/07/15 07:52:09;;;;;;;1.00;1.00;;;24.70;40.60;;;;;;5084178;28;20618;-82
2022/07/15 07:54:38;;;;;;;1.73;1.60;;;24.80;38.60;;;;;;5087314;28;20527;-83
2022/07/15 07:57:06;;;;;;;1.20;1.10;;;24.70;37.70;;;;;;5089340;28;20437;-82
2022/07/15 07:59:34;;;;;;;2.50;1.37;;;24.80;38.70;;;;;;5094041;28;20453;-82
2022/07/15 08:02:05;;;;;;;1.43;1.00;;;24.80;37.90;;;;;;5086970;28;20485;-81
2022/07/15 08:04:33;;;;;;;1.53;0.90;;;24.80;38.40;;;;;;5076253;28;20720;-82
2022/07/15 08:07:02;;;;;;;2.13;1.00;;;24.80;38.60;;;;;;5091665;28;20568;-82
2022/07/15 08:09:30;;;;;;;1.43;1.10;;;24.90;36.90;;;;;;5078871;28;20457;-82
2022/07/15 08:11:58;;;;;;;2.07;1.27;;;24.80;37.90;;;;;;5088844;28;20445;-82
2022/07/15 08:14:29;;;;;;;1.33;1.00;;;24.80;36.90;;;;;;5085865;28;20996;-82
2022/07/15 08:16:58;;;;;;;1.77;1.13;;;24.80;35.00;;;;;;5083793;28;20453;-82
2022/07/15 08:19:29;;;;;;;0.80;0.80;;;24.90;37.50;;;;;;5085323;28;20489;-82
2022/07/15 08:21:59;;;;;;;1.47;1.10;;;24.90;33.70;;;;;;5086403;28;20965;-83
2022/07/15 08:24:28;;;;;;;1.93;1.40;;;24.90;35.40;;;;;;5086124;28;20474;-82
2022/07/15 08:26:58;;;;;;;1.70;1.00;;;24.90;34.20;;;;;;5087754;28;20564;-81
2022/07/15 08:29:27;;;;;;;0.90;0.90;;;25.00;36.00;;;;;;5078670;28;20883;-82
2022/07/15 08:31:55;;;;;;;1.97;1.13;;;25.00;40.10;;;;;;5093455;28;20536;-82
2022/07/15 08:34:24;;;;;;;5.50;1.20;;;25.10;41.00;;;;;;5094738;28;20515;-81
2022/07/15 08:36:54;;;;;;;1.40;1.30;;;25.10;39.90;;;;;;5086611;28;20453;-82
2022/07/15 08:39:23;;;;;;;1.33;1.20;;;25.10;40.10;;;;;;5092865;28;21020;-82
2022/07/15 08:41:52;;;;;;;1.70;1.13;;;25.10;39.90;;;;;;5088109;28;20817;-84
2022/07/15 08:44:21;;;;;;;2.53;1.10;;;25.10;41.80;;;;;;5090756;28;20574;-82
2022/07/15 08:46:50;;;;;;;1.30;1.13;;;25.10;41.70;;;;;;5082359;28;20488;-80
2022/07/15 08:49:19;;;;;;;4.30;1.30;;;25.20;38.40;;;;;;5085660;28;20862;-82
2022/07/15 08:51:48;;;;;;;2.30;1.20;;;25.20;41.30;;;;;;5084931;28;20490;-83
2022/07/15 08:54:18;;;;;;;3.03;1.20;;;25.20;40.60;;;;;;5087238;28;20473;-82
2022/07/15 08:56:46;;;;;;;1.90;1.13;;;25.30;40.20;;;;;;5083076;28;20496;-84
2022/07/15 08:59:17;;;;;;;2.17;1.87;;;25.30;40.00;;;;;;5085670;28;20877;-82
2022/07/15 09:01:48;;;;;;;1.23;0.90;;;25.30;39.40;;;;;;5082336;28;21004;-82
2022/07/15 09:04:17;;;;;;;1.93;1.57;;;25.30;38.90;;;;;;5077969;28;20842;-83
2022/07/15 09:06:49;;;;;;;1.43;1.00;;;25.40;38.80;;;;;;5085094;28;20470;-81
2022/07/15 09:09:30;;;;;;;2.03;1.50;;;25.40;39.40;;;;;;5088282;28;20942;-83
2022/07/15 09:12:02;;;;;;;2.50;1.33;;;25.40;41.00;;;;;;5088752;28;20519;-83
2022/07/15 09:14:44;;;;;;;2.23;1.40;;;25.50;41.50;;;;;;5089941;28;20495;-82
2022/07/15 09:17:22;;;;;;;2.20;1.30;;;25.50;42.70;;;;;;5084574;28;20448;-85
2022/07/15 09:20:01;;;;;;;1.20;1.10;;;25.50;41.00;;;;;;5085353;28;20485;-83
2022/07/15 09:22:34;;;;;;;3.43;1.40;;;25.60;41.70;;;;;;5090222;28;20452;-82
2022/07/15 09:25:06;;;;;;;3.60;1.40;;;25.60;41.60;;;;;;5089964;28;20470;-82
2022/07/15 09:27:36;;;;;;;1.50;1.40;;;25.70;42.30;;;;;;5084035;28;20527;-82
2022/07/15 09:36:18;;;;;;;4.30;1.43;;;25.70;41.10;;;;;;5088608;28;20855;-82
2022/07/15 09:38:50;;;;;;;2.30;1.80;;;25.70;42.00;;;;;;5080866;28;20516;-82
2022/07/15 09:41:30;;;;;;;2.83;1.70;;;25.70;43.30;;;;;;5087095;28;20514;-81
2022/07/15 09:44:01;;;;;;;2.90;1.70;;;25.80;43.30;;;;;;5088839;28;20477;-82
2022/07/15 09:46:42;;;;;;;2.10;1.57;;;25.80;41.20;;;;;;5078847;28;20496;-82
2022/07/15 09:49:11;;;;;;;3.07;1.87;;;25.70;41.30;;;;;;5083385;28;20488;-82
2022/07/15 09:51:49;;;;;;;4.00;1.20;;;25.70;41.00;;;;;;5093541;28;20450;-82
2022/07/15 09:54:18;;;;;;;1.97;1.50;;;25.80;40.90;;;;;;5085172;28;20981;-85
2022/07/15 09:56:49;;;;;;;1.93;1.20;;;25.70;41.80;;;;;;5077879;28;20455;-83
2022/07/15 09:59:18;;;;;;;1.77;1.30;;;25.80;42.70;;;;;;5088283;28;20876;-83
2022/07/15 10:01:47;;;;;;;1.83;1.37;;;25.90;44.60;;;;;;5083137;28;20499;-81
2022/07/15 10:04:18;;;;;;;1.50;1.40;;;25.90;45.80;;;;;;5090578;28;20531;-82
2022/07/15 10:06:48;;;;;;;3.47;1.77;;;25.90;43.80;;;;;;5084855;28;20867;-81
2022/07/15 10:09:37;;;;;;;1.97;1.37;;;25.90;42.80;;;;;;5084907;28;20449;-82
2022/07/15 10:12:11;;;;;;;1.73;1.60;;;25.90;44.70;;;;;;5083178;28;20461;-83
2022/07/15 10:14:55;;;;;;;2.10;1.50;;;25.90;42.40;;;;;;5083806;28;20997;-81
2022/07/15 10:17:47;;;;;;;1.60;1.50;;;25.90;42.50;;;;;;5077703;28;20457;-81
2022/07/15 10:20:28;;;;;;;2.10;1.53;;;25.90;40.60;;;;;;5077054;28;20450;-82
2022/07/15 10:23:02;;;;;;;2.00;1.30;;;25.90;42.00;;;;;;5080578;28;20445;-81
2022/07/15 10:26:01;;;;;;;2.43;1.90;;;25.90;43.90;;;;;;5084322;28;20447;-84
2022/07/15 10:28:50;;;;;;;1.57;1.47;;;26.10;44.60;;;;;;5077465;28;20483;-82
2022/07/15 10:31:21;;;;;;;2.60;1.53;;;26.10;45.80;;;;;;5090759;28;20946;-83
2022/07/15 10:34:16;;;;;;;2.40;1.40;;;26.20;47.80;;;;;;5086510;28;20474;-81
2022/07/15 10:36:57;;;;;;;2.40;1.50;;;26.20;48.30;;;;;;5081997;28;20733;-83
2022/07/15 10:39:29;;;;;;;2.30;1.37;;;26.20;47.30;;;;;;5087250;28;20439;-82
2022/07/15 10:41:59;;;;;;;1.50;1.23;;;26.20;49.60;;;;;;5082275;28;20473;-83
2022/07/15 10:44:31;;;;;;;2.07;1.63;;;26.20;51.10;;;;;;5086978;28;20478;-82
2022/07/15 10:47:19;;;;;;;2.50;1.57;;;26.30;49.50;;;;;;5089671;28;20502;-83
2022/07/15 10:49:49;;;;;;;2.53;1.43;;;26.40;51.60;;;;;;5095780;28;20461;-83
2022/07/15 10:52:19;;;;;;;2.50;1.33;;;26.40;50.70;;;;;;5097206;28;20530;-83
2022/07/15 10:54:49;;;;;;;2.73;1.50;;;26.40;51.20;;;;;;5092592;28;20836;-83
2022/07/15 10:57:20;;;;;;;5.13;1.83;;;26.50;49.10;;;;;;5090738;28;20751;-84
2022/07/15 10:59:55;;;;;;;1.50;1.40;;;26.50;49.80;;;;;;5085562;28;20487;-81
2022/07/15 11:02:25;;;;;;;3.80;1.50;;;26.50;48.60;;;;;;5081485;28;20638;-82
2022/07/15 11:05:18;;;;;;;4.60;2.53;;;26.50;48.30;;;;;;5094297;28;20480;-82
2022/07/15 11:07:47;;;;;;;2.00;1.40;;;26.50;47.30;;;;;;5087554;28;20550;-82
2022/07/15 11:10:21;;;;;;;2.47;1.80;;;26.50;48.20;;;;;;5084490;28;20452;-81
2022/07/15 11:13:03;;;;;;;2.20;1.80;;;26.50;47.90;;;;;;5081049;28;20445;-81
2022/07/15 11:15:34;;;;;;;1.70;1.60;;;26.50;46.80;;;;;;5090777;28;20988;-82
2022/07/15 11:18:03;;;;;;;2.83;2.03;;;26.50;47.10;;;;;;5090125;28;20848;-82
2022/07/15 11:20:39;;;;;;;1.40;1.30;;;26.50;47.40;;;;;;5091776;28;20842;-83
2022/07/15 11:23:08;;;;;;;1.40;1.30;;;26.60;49.90;;;;;;5094622;28;20465;-81
2022/07/15 11:25:40;;;;;;;1.90;1.40;;;26.60;52.30;;;;;;5087018;28;20450;-81
2022/07/15 11:28:10;;;;;;;3.90;1.40;;;26.70;52.00;;;;;;5088921;28;20466;-81
2022/07/15 11:30:43;;;;;;;2.50;1.60;;;26.70;52.80;;;;;;5082855;28;20512;-82
2022/07/15 11:33:14;;;;;;;1.83;1.73;;;26.90;71.30;;;;;;5088027;28;20462;-83
2022/07/15 11:35:50;;;;;;;2.53;1.60;;;26.90;54.70;;;;;;5081936;28;20453;-82
2022/07/15 11:38:22;;;;;;;1.70;1.60;;;26.90;53.10;;;;;;5077646;28;20439;-82
2022/07/15 11:46:29;;;;;;;9.27;3.77;;;27.00;54.70;;;;;;5084780;28;20458;-82
2022/07/15 11:48:59;;;;;;;1.70;1.60;;;26.90;55.40;;;;;;5085193;28;20485;-82
2022/07/15 11:51:30;;;;;;;1.30;1.20;;;27.00;55.60;;;;;;5086357;28;20466;-83
2022/07/15 11:54:00;;;;;;;2.03;1.53;;;27.00;56.30;;;;;;5080476;28;21046;-82
2022/07/15 11:56:28;;;;;;;2.20;1.63;;;27.00;55.70;;;;;;5082713;28;21028;-83
2022/07/15 11:58:57;;;;;;;1.90;1.70;;;27.10;56.80;;;;;;5083263;28;20462;-82
2022/07/15 12:01:29;;;;;;;1.67;1.57;;;27.10;54.40;;;;;;5084849;28;20500;-83
2022/07/15 12:03:59;;;;;;;2.10;1.77;;;27.10;54.00;;;;;;5082687;28;20469;-83
2022/07/15 12:06:30;;;;;;;1.37;1.27;;;27.10;53.00;;;;;;5086186;28;20912;-83
2022/07/15 12:09:00;;;;;;;1.70;1.40;;;27.10;53.40;;;;;;5082885;28;20988;-83
2022/07/15 12:11:30;;;;;;;5.40;1.50;;;27.00;53.00;;;;;;5088344;28;20455;-82
2022/07/15 12:14:00;;;;;;;2.23;1.40;;;27.00;53.30;;;;;;5088897;28;20513;-82
2022/07/15 12:16:33;;;;;;;3.30;1.60;;;27.00;53.70;;;;;;5082269;28;20449;-82
2022/07/15 12:19:04;;;;;;;2.70;1.50;;;27.00;52.70;;;;;;5082445;28;20446;-81
2022/07/15 12:21:33;;;;;;;1.73;1.63;;;27.00;54.30;;;;;;5083767;28;21332;-81
2022/07/15 12:24:08;;;;;;;2.47;1.50;;;27.00;56.80;;;;;;5087150;28;20493;-84
2022/07/15 12:26:41;;;;;;;1.70;1.60;;;27.10;55.50;;;;;;5082918;28;20518;-79
2022/07/15 12:29:11;;;;;;;2.00;1.40;;;27.10;56.10;;;;;;5083158;28;20488;-84
2022/07/15 12:31:43;;;;;;;1.53;1.43;;;27.10;56.20;;;;;;5090553;28;20539;-82
2022/07/15 12:34:12;;;;;;;2.50;1.63;;;27.20;55.90;;;;;;5092242;28;20481;-84
2022/07/15 12:36:40;;;;;;;1.50;1.40;;;27.20;58.60;;;;;;5088172;28;20971;-83
2022/07/15 12:39:15;;;;;;;2.10;1.60;;;27.20;57.40;;;;;;5089550;28;20461;-85
2022/07/15 12:42:00;;;;;;;2.33;1.27;;;27.20;56.80;;;;;;5088578;28;20960;-82
2022/07/15 12:44:31;;;;;;;1.57;1.47;;;27.20;58.10;;;;;;5082368;28;20466;-82
2022/07/15 12:47:04;;;;;;;2.40;1.50;;;27.30;58.20;;;;;;5088959;28;20500;-81
2022/07/15 12:49:50;;;;;;;3.00;1.80;;;27.30;59.70;;;;;;5087861;28;20554;-82
2022/07/15 12:52:30;;;;;;;2.33;1.50;;;27.30;59.30;;;;;;5095786;28;20457;-81
2022/07/15 12:55:00;;;;;;;2.40;1.87;;;27.30;57.80;;;;;;5086957;28;20484;-81
2022/07/15 12:57:31;;;;;;;1.40;1.30;;;27.40;56.40;;;;;;5091318;28;20465;-81
2022/07/15 13:00:02;;;;;;;3.23;1.33;;;27.30;56.40;;;;;;5087038;28;20465;-82
2022/07/15 13:02:32;;;;;;;2.17;1.50;;;27.30;58.10;;;;;;5090526;28;20957;-83
2022/07/15 13:05:00;;;;;;;2.07;1.50;;;27.30;58.10;;;;;;5087602;28;20505;-82
2022/07/15 13:07:28;;;;;;;1.77;1.67;;;27.40;59.40;;;;;;5096468;28;20473;-81
2022/07/15 13:09:57;;;;;;;1.50;1.30;;;27.40;61.90;;;;;;5091601;28;20491;-82
2022/07/15 13:12:25;;;;;;;1.47;1.37;;;27.50;64.50;;;;;;5095903;28;20462;-82
2022/07/15 13:14:54;;;;;;;3.20;1.60;;;27.50;61.40;;;;;;5090210;28;20519;-83
2022/07/15 13:17:22;;;;;;;3.53;1.80;;;27.50;63.80;;;;;;5091547;28;20447;-83